createdAt,value
2018-09-10T06:39:58.027Z,77.68
2018-09-10T06:40:58.500Z,77.83
2018-09-10T06:41:58.975Z,78.00
2018-09-10T06:42:59.448Z,78.20
2018-09-10T06:43:59.924Z,78.55
2018-09-10T06:45:00.397Z,78.82
2018-09-10T06:46:00.868Z,79.10
2018-09-10T06:47:01.343Z,79.37
2018-09-10T06:48:01.815Z,78.89
2018-09-10T06:49:02.288Z,78.75
2018-09-10T06:50:02.762Z,78.99
2018-09-10T06:51:03.233Z,79.80
2018-09-10T06:52:03.707Z,79.75
2018-09-10T06:53:04.181Z,79.33
2018-09-10T06:54:04.656Z,77.92
2018-09-10T06:55:05.126Z,75.63
2018-09-10T06:56:05.595Z,75.00
2018-09-10T06:57:06.067Z,76.79
2018-09-10T06:58:06.540Z,77.01
2018-09-10T06:59:07.014Z,77.86
2018-09-10T07:00:07.485Z,78.78
2018-09-10T07:01:07.952Z,79.27
2018-09-10T07:02:08.424Z,79.13
2018-09-10T07:03:08.895Z,79.75
2018-09-10T07:04:09.368Z,80.02
2018-09-10T07:05:09.842Z,80.64
2018-09-10T07:06:10.308Z,80.99
2018-09-10T07:07:10.780Z,81.22
2018-09-10T07:08:11.248Z,81.41
2018-09-10T07:09:11.719Z,81.28
2018-09-10T07:10:12.192Z,81.57
2018-09-10T07:11:12.661Z,81.38
2018-09-10T07:12:13.134Z,81.42
2018-09-10T07:13:13.643Z,81.44
2018-09-10T07:14:14.073Z,81.27
2018-09-10T07:15:14.544Z,81.27
2018-09-10T07:16:15.015Z,81.27
2018-09-10T07:17:15.484Z,81.31
2018-09-10T07:18:16.008Z,81.45
2018-09-10T07:19:16.431Z,81.33
2018-09-10T07:21:17.369Z,80.71
2018-09-10T07:22:17.840Z,80.73
2018-09-10T07:23:18.312Z,80.93
2018-09-10T07:24:18.782Z,81.38
2018-09-10T07:25:19.255Z,82.10
2018-09-10T07:26:19.727Z,82.22
2018-09-10T07:27:20.200Z,81.92
2018-09-10T07:28:20.672Z,81.44
2018-09-10T07:29:21.144Z,80.90
2018-09-10T07:30:21.620Z,80.76
2018-09-10T07:31:22.092Z,80.52
2018-09-10T07:32:22.564Z,80.64
2018-09-10T07:33:23.036Z,81.11
2018-09-10T07:34:23.514Z,81.59
2018-09-10T07:35:23.983Z,81.40
2018-09-10T07:36:24.459Z,81.28
2018-09-10T07:37:24.984Z,80.65
2018-09-10T07:38:25.406Z,80.76
2018-09-10T07:39:25.881Z,81.87
2018-09-10T07:40:26.355Z,82.31
2018-09-10T07:41:26.829Z,82.16
2018-09-10T07:42:27.305Z,82.61
2018-09-10T07:43:27.782Z,82.81
2018-09-10T07:44:28.257Z,82.11
2018-09-10T07:45:28.732Z,82.97
2018-09-10T07:46:29.205Z,83.67
2018-09-10T07:47:29.681Z,83.38
2018-09-10T07:48:30.155Z,83.62
2018-09-10T07:49:30.630Z,83.60
2018-09-10T07:50:31.106Z,83.62
2018-09-10T07:51:31.584Z,83.88
2018-09-10T07:52:32.055Z,85.34
2018-09-10T07:53:32.531Z,85.20
2018-09-10T07:54:33.064Z,83.46
2018-09-10T07:55:33.483Z,81.02
2018-09-10T07:56:33.956Z,78.81
2018-09-10T07:57:34.433Z,77.15
2018-09-10T07:58:34.915Z,77.96
2018-09-10T07:59:35.384Z,78.02
2018-09-10T08:00:35.857Z,77.71
2018-09-10T08:01:36.334Z,77.47
2018-09-10T08:02:36.810Z,77.97
2018-09-10T08:03:37.287Z,77.93
2018-09-10T08:04:37.762Z,77.04
2018-09-10T08:05:38.238Z,77.27
2018-09-10T08:06:38.713Z,78.50
2018-09-10T08:07:39.192Z,76.67
2018-09-10T08:08:39.667Z,75.42
2018-09-10T08:09:40.223Z,76.58
2018-09-10T08:10:40.623Z,77.98
2018-09-10T08:11:41.100Z,79.11
2018-09-10T08:12:41.603Z,79.79
2018-09-10T08:13:42.056Z,80.41
2018-09-10T08:14:42.535Z,80.95
2018-09-10T08:15:43.029Z,81.38
2018-09-10T08:16:43.494Z,81.56
2018-09-10T08:17:43.971Z,81.57
2018-09-10T08:18:44.462Z,81.56
2018-09-10T08:19:44.932Z,81.52
2018-09-10T08:20:45.410Z,81.42
2018-09-10T08:21:45.891Z,81.13
2018-09-10T08:22:46.373Z,80.79
2018-09-10T08:23:46.858Z,80.74
2018-09-10T08:24:47.332Z,81.00
2018-09-10T08:25:47.813Z,81.13
2018-09-10T08:26:48.294Z,80.83
2018-09-10T08:27:48.777Z,80.32
2018-09-10T08:28:49.255Z,80.35
2018-09-10T08:29:49.734Z,80.30
2018-09-10T08:30:50.214Z,80.52
2018-09-10T08:31:50.698Z,80.74
2018-09-10T08:32:51.172Z,79.78
2018-09-10T08:33:51.701Z,78.52
2018-09-10T08:34:52.137Z,77.55
2018-09-10T08:35:52.609Z,76.91
2018-09-10T08:36:53.088Z,76.97
2018-09-10T08:37:53.564Z,77.37
2018-09-10T08:38:54.042Z,78.19
2018-09-10T08:39:54.519Z,78.63
2018-09-10T08:40:54.996Z,78.57
2018-09-10T08:41:55.474Z,79.09
2018-09-10T08:42:56.044Z,78.71
2018-09-10T08:43:56.428Z,78.83
2018-09-10T08:44:56.907Z,79.56
2018-09-10T08:45:57.380Z,80.20
2018-09-10T08:46:57.854Z,80.18
2018-09-10T08:47:58.330Z,80.15
2018-09-10T08:48:58.857Z,80.17
2018-09-10T08:49:59.281Z,80.35
2018-09-10T08:50:59.758Z,80.81
2018-09-10T08:52:00.231Z,81.36
2018-09-10T08:53:00.706Z,81.63
2018-09-10T08:54:01.272Z,81.72
2018-09-10T08:55:01.880Z,81.69
2018-09-10T08:56:02.294Z,81.41
2018-09-10T08:57:02.602Z,80.71
2018-09-10T08:58:03.079Z,79.97
2018-09-10T08:59:03.551Z,79.91
2018-09-10T09:00:04.065Z,79.80
2018-09-10T09:01:04.500Z,80.12
2018-09-10T09:02:04.973Z,80.46
2018-09-10T09:03:05.442Z,80.84
2018-09-10T09:04:05.917Z,81.12
2018-09-10T09:05:06.389Z,81.24
2018-09-10T09:06:06.930Z,81.57
2018-09-10T09:07:07.335Z,81.49
2018-09-10T09:08:07.862Z,81.50
2018-09-10T09:09:08.279Z,81.63
2018-09-10T09:10:08.751Z,81.62
2018-09-10T09:11:09.222Z,81.37
2018-09-10T09:12:09.694Z,81.28
2018-09-10T09:13:10.169Z,81.07
2018-09-10T09:14:10.638Z,80.90
2018-09-10T09:15:11.110Z,80.72
2018-09-10T09:16:11.584Z,80.91
2018-09-10T09:17:12.053Z,80.96
2018-09-10T09:18:12.527Z,81.23
2018-09-10T09:19:12.997Z,81.35
2018-09-10T09:20:13.469Z,81.14
2018-09-10T09:21:13.939Z,81.43
2018-09-10T09:22:14.409Z,81.41
2018-09-10T09:23:14.931Z,81.35
2018-09-10T09:24:15.352Z,81.40
2018-09-10T09:25:15.825Z,81.64
2018-09-10T09:26:16.295Z,82.59
2018-09-10T09:27:16.767Z,83.06
2018-09-10T09:28:17.237Z,83.15
2018-09-10T09:29:17.709Z,83.10
2018-09-10T09:30:18.260Z,82.92
2018-09-10T09:31:18.652Z,82.96
2018-09-10T09:32:19.124Z,82.98
2018-09-10T09:33:19.593Z,82.85
2018-09-10T09:34:20.067Z,82.56
2018-09-10T09:35:20.538Z,82.44
2018-09-10T09:36:21.016Z,82.41
2018-09-10T09:37:21.483Z,82.02
2018-09-10T09:38:21.955Z,81.78
2018-09-10T09:39:22.429Z,81.54
2018-09-10T09:40:22.904Z,81.26
2018-09-10T09:41:23.374Z,81.56
2018-09-10T09:42:23.851Z,81.70
2018-09-10T09:43:24.354Z,81.67
2018-09-10T09:44:24.798Z,80.01
2018-09-10T09:45:25.274Z,80.47
2018-09-10T09:46:25.744Z,79.21
2018-09-10T09:47:26.222Z,80.60
2018-09-10T09:48:26.694Z,80.97
2018-09-10T09:49:27.170Z,82.06
2018-09-10T09:50:27.645Z,80.84
2018-09-10T09:51:28.119Z,80.28
2018-09-10T09:52:28.595Z,80.25
2018-09-10T09:53:29.069Z,80.61
2018-09-10T09:54:29.545Z,81.25
2018-09-10T09:55:30.020Z,81.40
2018-09-10T09:56:30.511Z,81.58
2018-09-10T09:57:30.970Z,82.34
2018-09-10T09:58:31.447Z,82.76
2018-09-10T09:59:31.921Z,82.48
2018-09-10T10:00:32.401Z,82.18
2018-09-10T10:01:32.872Z,82.19
2018-09-10T10:02:33.347Z,82.29
2018-09-10T10:03:33.820Z,80.06
2018-09-10T10:04:34.352Z,79.98
2018-09-10T10:05:34.771Z,80.62
2018-09-10T10:06:35.249Z,80.89
2018-09-10T10:07:35.720Z,81.39
2018-09-10T10:08:36.201Z,80.89
2018-09-10T10:09:36.670Z,80.02
2018-09-10T10:10:37.144Z,80.36
2018-09-10T10:11:37.640Z,80.76
2018-09-10T10:12:38.093Z,81.10
2018-09-10T10:13:38.569Z,80.16
2018-09-10T10:14:39.041Z,80.50
2018-09-10T10:15:39.515Z,80.79
2018-09-10T10:16:39.995Z,82.24
2018-09-10T10:17:40.462Z,82.66
2018-09-10T10:18:40.938Z,82.16
2018-09-10T10:19:41.461Z,82.35
2018-09-10T10:20:41.885Z,83.13
2018-09-10T10:21:42.358Z,83.85
2018-09-10T10:22:42.838Z,84.41
2018-09-10T10:23:43.306Z,83.86
2018-09-10T10:24:43.779Z,83.55
2018-09-10T10:25:44.251Z,81.74
2018-09-10T10:26:44.725Z,83.59
2018-09-10T10:27:45.198Z,83.58
2018-09-10T10:28:45.672Z,83.19
2018-09-10T10:29:46.146Z,82.02
2018-09-10T10:30:46.616Z,82.24
2018-09-10T10:31:47.090Z,81.69
2018-09-10T10:32:47.561Z,81.83
2018-09-10T10:33:48.037Z,83.19
2018-09-10T10:34:48.507Z,83.65
2018-09-10T10:35:48.981Z,84.25
2018-09-10T10:36:49.454Z,84.47
2018-09-10T10:37:49.925Z,84.50
2018-09-10T10:38:50.400Z,81.46
2018-09-10T10:39:50.870Z,80.68
2018-09-10T10:40:51.344Z,79.31
2018-09-10T10:41:51.815Z,79.67
2018-09-10T10:42:52.288Z,81.04
2018-09-10T10:43:52.762Z,82.12
2018-09-10T10:44:53.235Z,81.45
2018-09-10T10:45:53.707Z,82.62
2018-09-10T10:46:54.177Z,81.83
2018-09-10T10:47:54.650Z,78.94
2018-09-10T10:48:55.122Z,78.70
2018-09-10T10:49:55.594Z,79.55
2018-09-10T10:50:56.064Z,79.49
2018-09-10T10:51:56.539Z,78.27
2018-09-10T10:52:57.008Z,76.41
2018-09-10T10:53:57.480Z,76.54
2018-09-10T10:54:58.002Z,76.15
2018-09-10T10:55:58.424Z,76.51
2018-09-10T10:56:58.897Z,76.87
2018-09-10T10:57:59.367Z,77.34
2018-09-10T10:58:59.839Z,79.12
2018-09-10T11:00:00.311Z,79.61
2018-09-10T11:01:00.786Z,79.55
2018-09-10T11:02:01.255Z,80.99
2018-09-10T11:03:01.726Z,82.45
2018-09-10T11:04:02.204Z,82.84
2018-09-10T11:05:02.669Z,82.84
2018-09-10T11:06:03.143Z,81.85
2018-09-10T11:07:03.611Z,80.08
2018-09-10T11:08:04.086Z,78.99
2018-09-10T11:09:04.556Z,79.21
2018-09-10T11:10:05.026Z,78.78
2018-09-10T11:11:05.498Z,76.67
2018-09-10T11:12:05.971Z,75.75
2018-09-10T11:13:06.441Z,74.07
2018-09-10T11:14:06.910Z,72.58
2018-09-10T11:15:07.381Z,73.57
2018-09-10T11:16:07.852Z,74.52
2018-09-10T11:17:08.325Z,73.94
2018-09-10T11:18:08.795Z,74.02
2018-09-10T11:19:09.269Z,74.06
2018-09-10T11:20:09.737Z,75.04
2018-09-10T11:21:10.215Z,75.82
2018-09-10T11:22:10.731Z,76.59
2018-09-10T11:23:11.151Z,76.71
2018-09-10T11:24:11.621Z,78.26
2018-09-10T11:25:12.097Z,78.45
2018-09-10T11:26:12.564Z,78.17
2018-09-10T11:27:13.035Z,75.80
2018-09-10T11:28:13.507Z,75.96
2018-09-10T11:29:13.979Z,74.10
2018-09-10T11:30:14.448Z,73.47
2018-09-10T11:31:14.920Z,74.03
2018-09-10T11:32:15.390Z,77.08
2018-09-10T11:33:15.861Z,76.95
2018-09-10T11:34:16.333Z,78.26
2018-09-10T11:35:16.804Z,79.18
2018-09-10T11:36:17.275Z,80.38
2018-09-10T11:37:17.745Z,80.88
2018-09-10T11:38:18.218Z,81.46
2018-09-10T11:39:18.686Z,83.42
2018-09-10T11:40:19.160Z,83.85
2018-09-10T11:41:19.631Z,84.21
2018-09-10T11:42:20.099Z,85.37
2018-09-10T11:43:20.570Z,83.66
2018-09-10T11:44:21.042Z,83.75
2018-09-10T11:45:21.515Z,80.63
2018-09-10T11:46:21.985Z,79.07
2018-09-10T11:47:22.457Z,74.68
2018-09-10T11:48:22.927Z,71.68
2018-09-10T11:49:23.399Z,72.06
2018-09-10T11:50:23.869Z,73.87
2018-09-10T11:51:24.342Z,74.56
2018-09-10T11:52:24.818Z,75.66
2018-09-10T11:53:25.285Z,75.24
2018-09-10T11:54:25.757Z,75.90
2018-09-10T11:55:26.285Z,75.81
2018-09-10T11:56:26.703Z,75.39
2018-09-10T11:57:27.176Z,76.40
2018-09-10T11:58:27.651Z,76.43
2018-09-10T11:59:28.125Z,75.28
2018-09-10T12:00:28.599Z,75.23
2018-09-10T12:01:29.072Z,73.45
2018-09-10T12:02:29.546Z,70.82
2018-09-10T12:03:30.022Z,73.83
2018-09-10T12:04:30.496Z,76.44
2018-09-10T12:05:30.974Z,78.54
2018-09-10T12:06:31.445Z,78.16
2018-09-10T12:07:31.921Z,78.46
2018-09-10T12:08:32.396Z,79.16
2018-09-10T12:09:32.870Z,78.82
2018-09-10T12:10:33.347Z,80.65
2018-09-10T12:11:33.823Z,80.06
2018-09-10T12:12:34.299Z,80.39
2018-09-10T12:13:34.824Z,80.63
2018-09-10T12:14:35.247Z,80.49
2018-09-10T12:15:35.925Z,79.05
2018-09-10T12:16:36.198Z,77.83
2018-09-10T12:17:36.675Z,78.19
2018-09-10T12:18:37.154Z,76.04
2018-09-10T12:19:37.628Z,78.82
2018-09-10T12:20:38.100Z,81.27
2018-09-10T12:21:38.667Z,81.00
2018-09-10T12:22:39.053Z,80.25
2018-09-10T12:23:39.527Z,80.07
2018-09-10T12:24:40.005Z,80.78
2018-09-10T12:25:40.480Z,81.21
2018-09-10T12:26:41.005Z,80.60
2018-09-10T12:27:41.429Z,79.41
2018-09-10T12:28:41.906Z,78.79
2018-09-10T12:29:42.381Z,74.64
2018-09-10T12:30:42.857Z,72.22
2018-09-10T12:31:43.333Z,71.48
2018-09-10T12:32:43.809Z,72.92
2018-09-10T12:33:44.280Z,75.74
2018-09-10T12:34:44.757Z,76.37
2018-09-10T12:35:45.232Z,75.57
2018-09-10T12:36:45.709Z,74.87
2018-09-10T12:37:46.183Z,73.52
2018-09-10T12:38:46.657Z,73.45
2018-09-10T12:39:47.164Z,73.72
2018-09-10T12:40:47.606Z,73.69
2018-09-10T12:41:48.081Z,74.00
2018-09-10T12:42:48.555Z,75.40
2018-09-10T12:43:49.033Z,76.95
2018-09-10T12:44:49.505Z,78.78
2018-09-10T12:45:49.979Z,79.35
2018-09-10T12:46:50.452Z,79.11
2018-09-10T12:47:50.930Z,77.00
2018-09-10T12:48:51.403Z,76.54
2018-09-10T12:49:51.877Z,77.26
2018-09-10T12:50:52.349Z,77.82
2018-09-10T12:51:52.826Z,76.55
2018-09-10T12:52:53.302Z,73.89
2018-09-10T12:53:53.774Z,76.32
2018-09-10T12:54:54.247Z,77.46
2018-09-10T12:55:54.722Z,78.71
2018-09-10T12:56:55.195Z,78.72
2018-09-10T12:57:55.671Z,77.58
2018-09-10T12:58:56.212Z,78.11
2018-09-10T12:59:56.620Z,78.72
2018-09-10T13:00:57.094Z,78.94
2018-09-10T13:01:57.566Z,79.01
2018-09-10T13:02:58.039Z,79.70
2018-09-10T13:03:58.514Z,80.25
2018-09-10T13:04:58.988Z,79.84
2018-09-10T13:05:59.463Z,77.75
2018-09-10T13:06:59.937Z,75.50
2018-09-10T13:08:00.407Z,76.95
2018-09-10T13:09:00.882Z,78.10
2018-09-10T13:10:01.357Z,78.32
2018-09-10T13:11:01.831Z,79.60
2018-09-10T13:12:02.304Z,80.75
2018-09-10T13:13:02.777Z,80.80
2018-09-10T13:14:03.252Z,80.76
2018-09-10T13:15:03.724Z,81.01
2018-09-10T13:16:04.225Z,81.22
2018-09-10T13:17:04.673Z,82.03
2018-09-10T13:18:05.147Z,82.85
2018-09-10T13:19:05.619Z,83.61
2018-09-10T13:20:06.095Z,83.83
2018-09-10T13:21:06.566Z,83.57
2018-09-10T13:22:07.043Z,83.61
2018-09-10T13:23:07.519Z,83.72
2018-09-10T13:24:07.986Z,83.66
2018-09-10T13:25:08.462Z,82.95
2018-09-10T13:26:08.937Z,82.32
2018-09-10T13:27:09.408Z,81.54
2018-09-10T13:28:09.882Z,81.62
2018-09-10T13:29:10.354Z,81.35
2018-09-10T13:30:10.829Z,81.34
2018-09-10T13:31:11.302Z,81.19
2018-09-10T13:32:11.779Z,81.43
2018-09-10T13:33:12.248Z,81.20
2018-09-10T13:34:12.723Z,81.01
2018-09-10T13:35:13.194Z,80.65
2018-09-10T13:36:13.669Z,80.53
2018-09-10T13:37:14.143Z,80.73
2018-09-10T13:38:14.615Z,80.99
2018-09-10T13:39:15.088Z,81.34
2018-09-10T13:40:15.562Z,81.46
2018-09-10T13:41:16.037Z,81.62
2018-09-10T13:42:16.510Z,82.15
2018-09-10T13:43:17.023Z,82.37
2018-09-10T13:44:17.456Z,81.77
2018-09-10T13:45:17.931Z,81.71
2018-09-10T13:46:18.403Z,81.99
2018-09-10T13:47:18.874Z,82.03
2018-09-10T13:48:19.350Z,81.85
2018-09-10T13:49:19.821Z,81.55
2018-09-10T13:50:20.298Z,81.02
2018-09-10T13:51:20.768Z,80.66
2018-09-10T13:52:21.243Z,81.77
2018-09-10T13:53:21.717Z,82.38
2018-09-10T13:54:22.189Z,82.25
2018-09-10T13:55:22.661Z,82.36
2018-09-10T13:56:23.136Z,81.16
2018-09-10T13:57:23.616Z,79.51
2018-09-10T13:58:24.083Z,80.16
2018-09-10T13:59:24.556Z,81.46
2018-09-10T14:00:25.027Z,82.68
2018-09-10T14:01:25.512Z,83.55
2018-09-10T14:02:25.975Z,84.48
2018-09-10T14:03:26.448Z,85.03
2018-09-10T14:04:26.925Z,83.44
2018-09-10T14:05:27.397Z,82.73
2018-09-10T14:06:27.874Z,82.59
2018-09-10T14:07:28.344Z,82.39
2018-09-10T14:08:28.816Z,83.51
2018-09-10T14:09:29.289Z,83.90
2018-09-10T14:10:29.808Z,84.31
2018-09-10T14:11:30.235Z,84.70
2018-09-10T14:12:30.707Z,85.62
2018-09-10T14:13:31.188Z,85.88
2018-09-10T14:14:31.710Z,85.28
2018-09-10T14:15:32.131Z,84.70
2018-09-10T14:16:32.601Z,84.43
2018-09-10T14:17:33.078Z,84.51
2018-09-10T14:18:33.549Z,85.28
2018-09-10T14:19:34.021Z,86.20
2018-09-10T14:20:34.496Z,87.02
2018-09-10T14:21:35.019Z,87.75
2018-09-10T14:22:35.444Z,88.14
2018-09-10T14:23:35.917Z,88.46
2018-09-10T14:24:36.390Z,87.68
2018-09-10T14:25:36.863Z,86.52
2018-09-10T14:26:37.340Z,85.41
2018-09-10T14:27:37.809Z,85.38
2018-09-10T14:28:38.282Z,86.24
2018-09-10T14:29:38.759Z,87.54
2018-09-10T14:30:39.231Z,87.81
2018-09-10T14:31:39.704Z,86.45
2018-09-10T14:32:40.175Z,86.06
2018-09-10T14:33:40.649Z,86.32
2018-09-10T14:34:41.219Z,86.55
2018-09-10T14:35:41.596Z,86.68
2018-09-10T14:36:42.089Z,86.19
2018-09-10T14:37:42.542Z,85.86
2018-09-10T14:38:43.019Z,87.30
2018-09-10T14:39:43.491Z,88.05
2018-09-10T14:40:44.176Z,88.39
2018-09-10T14:41:44.438Z,87.32
2018-09-10T14:42:44.917Z,86.91
2018-09-10T14:43:45.384Z,86.25
2018-09-10T14:44:45.858Z,86.30
2018-09-10T14:45:46.333Z,85.74
2018-09-10T14:46:46.807Z,85.77
2018-09-10T14:47:47.280Z,86.14
2018-09-10T14:48:47.752Z,86.24
2018-09-10T14:49:48.225Z,85.74
2018-09-10T14:50:48.702Z,87.32
2018-09-10T14:51:49.173Z,87.67
2018-09-10T14:52:49.645Z,88.89
2018-09-10T14:53:50.120Z,89.51
2018-09-10T14:54:50.595Z,88.98
2018-09-10T14:55:51.066Z,86.98
2018-09-10T14:56:51.540Z,88.05
2018-09-10T14:57:52.015Z,89.38
2018-09-10T14:58:52.489Z,90.30
2018-09-10T14:59:52.961Z,90.86
2018-09-10T15:00:53.438Z,91.50
2018-09-10T15:01:53.912Z,92.00
2018-09-10T15:02:54.383Z,92.28
2018-09-10T15:03:54.855Z,92.55
2018-09-10T15:04:55.335Z,92.79
2018-09-10T15:05:55.843Z,92.74
2018-09-10T15:06:56.277Z,92.66
2018-09-10T15:07:56.752Z,92.77
2018-09-10T15:08:57.223Z,92.86
2018-09-10T15:09:57.697Z,92.51
2018-09-10T15:10:58.171Z,92.04
2018-09-10T15:11:58.666Z,89.50
2018-09-10T15:12:59.122Z,87.71
2018-09-10T15:13:59.591Z,87.64
2018-09-10T15:15:00.068Z,88.85
2018-09-10T15:16:00.537Z,89.97
2018-09-10T15:17:01.012Z,90.12
2018-09-10T15:18:01.488Z,89.07
2018-09-10T15:19:02.117Z,88.60
2018-09-10T15:20:02.438Z,87.91
2018-09-10T15:21:02.906Z,87.77
2018-09-10T15:22:03.382Z,87.70
2018-09-10T15:23:03.855Z,86.95
2018-09-10T15:24:04.327Z,87.60
2018-09-10T15:25:04.802Z,87.82
2018-09-10T15:26:05.329Z,88.74
2018-09-10T15:27:05.754Z,87.89
2018-09-10T15:28:06.224Z,89.62
2018-09-10T15:29:06.699Z,90.04
2018-09-10T15:30:07.173Z,90.36
2018-09-10T15:31:07.646Z,90.61
2018-09-10T15:32:08.121Z,90.45
2018-09-10T15:33:08.592Z,90.02
2018-09-10T15:34:09.069Z,89.45
2018-09-10T15:35:09.540Z,89.19
2018-09-10T15:36:10.017Z,88.71
2018-09-10T15:37:10.488Z,89.09
2018-09-10T15:38:10.962Z,89.63
2018-09-10T15:39:11.437Z,87.94
2018-09-10T15:40:11.909Z,88.09
2018-09-10T15:41:12.389Z,87.78
2018-09-10T15:42:12.859Z,89.27
2018-09-10T15:43:13.334Z,88.76
2018-09-10T15:44:13.805Z,89.46
2018-09-10T15:45:14.339Z,90.31
2018-09-10T15:46:14.752Z,90.84
2018-09-10T15:47:15.226Z,91.53
2018-09-10T15:48:15.701Z,92.09
2018-09-10T15:49:16.176Z,92.50
2018-09-10T15:50:16.648Z,92.73
2018-09-10T15:51:17.163Z,92.92
2018-09-10T15:52:17.596Z,93.11
2018-09-10T15:53:18.080Z,93.09
2018-09-10T15:54:18.544Z,92.86
2018-09-10T15:55:19.021Z,92.93
2018-09-10T15:56:19.489Z,93.21
2018-09-10T15:57:20.023Z,93.31
2018-09-10T15:58:20.439Z,93.46
2018-09-10T15:59:20.912Z,93.29
2018-09-10T16:00:21.386Z,93.16
2018-09-10T16:01:21.861Z,93.11
2018-09-10T16:02:22.334Z,92.95
2018-09-10T16:03:22.807Z,92.99
2018-09-10T16:04:23.283Z,93.29
2018-09-10T16:05:23.753Z,93.53
2018-09-10T16:06:24.228Z,93.50
2018-09-10T16:07:24.707Z,93.51
2018-09-10T16:08:25.179Z,93.45
2018-09-10T16:09:25.649Z,92.72
2018-09-10T16:10:26.123Z,91.43
2018-09-10T16:11:26.597Z,90.56
2018-09-10T16:12:27.070Z,90.07
2018-09-10T16:13:27.545Z,89.76
2018-09-10T16:14:28.017Z,89.64
2018-09-10T16:15:28.493Z,89.98
2018-09-10T16:16:28.965Z,90.63
2018-09-10T16:17:29.441Z,90.65
2018-09-10T16:18:29.914Z,91.00
2018-09-10T16:19:30.387Z,90.01
2018-09-10T16:20:30.867Z,89.13
2018-09-10T16:21:31.334Z,88.63
2018-09-10T16:22:31.808Z,88.97
2018-09-10T16:23:32.283Z,89.86
2018-09-10T16:24:32.756Z,90.30
2018-09-10T16:25:33.229Z,90.90
2018-09-10T16:26:33.704Z,90.28
2018-09-10T16:27:34.245Z,89.97
2018-09-10T16:28:34.651Z,89.31
2018-09-10T16:29:35.125Z,89.24
2018-09-10T16:30:35.599Z,88.45
2018-09-10T16:31:36.073Z,89.11
2018-09-10T16:32:36.548Z,89.89
2018-09-10T16:33:37.027Z,89.78
2018-09-10T16:34:37.493Z,89.25
2018-09-10T16:35:37.968Z,89.19
2018-09-10T16:36:38.440Z,89.91
2018-09-10T16:37:38.913Z,90.75
2018-09-10T16:38:39.387Z,90.72
2018-09-10T16:39:39.862Z,90.12
2018-09-10T16:40:40.335Z,88.05
2018-09-10T16:41:40.835Z,86.24
2018-09-10T16:42:41.283Z,85.78
2018-09-10T16:43:41.762Z,85.65
2018-09-10T16:44:42.228Z,85.40
2018-09-10T16:45:42.702Z,85.28
2018-09-10T16:46:43.177Z,86.44
2018-09-10T16:47:43.652Z,87.72
2018-09-10T16:48:44.183Z,88.09
2018-09-10T16:49:44.597Z,88.82
2018-09-10T16:50:45.070Z,89.28
2018-09-10T16:51:45.543Z,89.35
2018-09-10T16:52:46.018Z,89.37
2018-09-10T16:53:46.490Z,88.65
2018-09-10T16:54:47.061Z,88.60
2018-09-10T16:55:47.438Z,88.03
2018-09-10T16:56:47.915Z,87.17
2018-09-10T16:57:48.386Z,86.72
2018-09-10T16:58:48.859Z,86.82
2018-09-10T16:59:49.335Z,86.91
2018-09-10T17:00:49.876Z,87.56
2018-09-10T17:01:50.279Z,87.50
2018-09-10T17:02:50.754Z,87.32
2018-09-10T17:03:51.230Z,86.96
2018-09-10T17:04:51.700Z,86.66
2018-09-10T17:05:52.174Z,86.44
2018-09-10T17:06:52.647Z,86.12
2018-09-10T17:07:53.124Z,86.18
2018-09-10T17:08:53.593Z,86.40
2018-09-10T17:09:54.068Z,84.91
2018-09-10T17:10:54.542Z,84.63
2018-09-10T17:11:55.015Z,84.79
2018-09-10T17:12:55.487Z,85.33
2018-09-10T17:13:55.963Z,85.28
2018-09-10T17:14:56.435Z,85.39
2018-09-10T17:15:56.910Z,85.97
2018-09-10T17:16:57.385Z,87.12
2018-09-10T17:17:57.854Z,87.28
2018-09-10T17:18:58.328Z,86.72
2018-09-10T17:19:58.801Z,86.46
2018-09-10T17:20:59.274Z,86.32
2018-09-10T17:21:59.748Z,86.20
2018-09-10T17:23:00.219Z,86.49
2018-09-10T17:24:00.692Z,87.65
2018-09-10T17:25:01.166Z,89.03
2018-09-10T17:26:01.638Z,90.20
2018-09-10T17:27:02.113Z,91.07
2018-09-10T17:28:02.585Z,91.60
2018-09-10T17:29:03.058Z,92.00
2018-09-10T17:30:03.531Z,92.12
2018-09-10T17:31:04.006Z,91.80
2018-09-10T17:32:04.477Z,92.10
2018-09-10T17:33:04.951Z,92.50
2018-09-10T17:34:05.424Z,92.77
2018-09-10T17:35:05.897Z,92.96
2018-09-10T17:36:06.371Z,93.08
2018-09-10T17:37:06.844Z,93.23
2018-09-10T17:38:07.315Z,93.25
2018-09-10T17:39:07.789Z,93.24
2018-09-10T17:40:08.263Z,93.24
2018-09-10T17:41:08.734Z,93.21
2018-09-10T17:42:09.205Z,93.13
2018-09-10T17:43:09.679Z,93.14
2018-09-10T17:44:10.151Z,93.17
2018-09-10T17:45:10.623Z,93.25
2018-09-10T17:46:11.096Z,93.37
2018-09-10T17:47:11.700Z,93.32
2018-09-10T17:48:12.042Z,93.08
2018-09-10T17:49:12.515Z,92.75
2018-09-10T17:50:12.985Z,92.30
2018-09-10T17:51:13.459Z,91.73
2018-09-10T17:52:13.931Z,91.20
2018-09-10T17:53:14.447Z,90.82
2018-09-10T17:54:14.876Z,90.32
2018-09-10T17:55:15.348Z,89.72
2018-09-10T17:56:15.821Z,89.82
2018-09-10T17:57:16.294Z,89.98
2018-09-10T17:58:16.768Z,90.28
2018-09-10T17:59:17.237Z,90.65
2018-09-10T18:00:17.715Z,90.98
2018-09-10T18:01:18.183Z,91.24
2018-09-10T18:02:18.654Z,91.42
2018-09-10T18:03:19.127Z,91.61
2018-09-10T18:04:19.602Z,91.91
2018-09-10T18:05:20.069Z,92.23
2018-09-10T18:06:20.542Z,92.50
2018-09-10T18:07:21.014Z,92.79
2018-09-10T18:08:21.487Z,92.99
2018-09-10T18:09:21.958Z,93.18
2018-09-10T18:10:22.429Z,93.34
2018-09-10T18:11:22.900Z,93.47
2018-09-10T18:12:23.374Z,93.64
2018-09-10T18:13:23.869Z,93.77
2018-09-10T18:14:24.318Z,93.93
2018-09-10T18:15:24.793Z,94.08
2018-09-10T18:16:25.263Z,94.17
2018-09-10T18:17:25.733Z,94.25
2018-09-10T18:18:26.207Z,94.29
2018-09-10T18:19:26.677Z,94.32
2018-09-10T18:20:27.163Z,94.35
2018-09-10T18:21:27.619Z,94.32
2018-09-10T18:22:28.091Z,94.28
2018-09-10T18:23:28.564Z,94.24
2018-09-10T18:24:29.034Z,94.20
2018-09-10T18:25:29.513Z,94.05
2018-09-10T18:26:29.975Z,93.98
2018-09-10T18:27:30.449Z,93.70
2018-09-10T18:28:30.921Z,93.55
2018-09-10T18:29:31.390Z,93.31
2018-09-10T18:30:31.862Z,92.86
2018-09-10T18:31:32.333Z,91.79
2018-09-10T18:32:32.805Z,90.99
2018-09-10T18:33:33.276Z,91.05
2018-09-10T18:34:33.750Z,90.96
2018-09-10T18:35:34.231Z,90.92
2018-09-10T18:36:34.688Z,91.48
2018-09-10T18:37:35.162Z,92.29
2018-09-10T18:38:35.631Z,92.83
2018-09-10T18:39:36.102Z,92.94
2018-09-10T18:40:36.574Z,92.87
2018-09-10T18:41:37.043Z,92.95
2018-09-10T18:42:37.514Z,93.16
2018-09-10T18:43:37.987Z,93.37
2018-09-10T18:44:38.457Z,93.55
2018-09-10T18:45:38.928Z,93.66
2018-09-10T18:46:39.399Z,93.82
2018-09-10T18:47:39.871Z,93.94
2018-09-10T18:48:40.355Z,94.03
2018-09-10T18:49:40.815Z,94.09
2018-09-10T18:50:41.284Z,94.13
2018-09-10T18:51:41.752Z,94.21
2018-09-10T18:52:42.222Z,94.21
2018-09-10T18:53:42.693Z,94.24
2018-09-10T18:54:43.163Z,94.37
2018-09-10T18:55:43.634Z,94.48
2018-09-10T18:56:44.106Z,94.59
2018-09-10T18:57:44.575Z,94.67
2018-09-10T18:58:45.045Z,94.67
2018-09-10T18:59:45.521Z,94.67
2018-09-10T19:00:46.065Z,94.54
2018-09-10T19:01:46.457Z,94.33
2018-09-10T19:02:46.931Z,94.34
2018-09-10T19:03:47.400Z,94.35
2018-09-10T19:04:47.869Z,94.43
2018-09-10T19:05:48.343Z,94.42
2018-09-10T19:06:48.811Z,94.38
2018-09-10T19:07:49.281Z,94.42
2018-09-10T19:08:49.755Z,94.46
2018-09-10T19:09:50.253Z,94.53
2018-09-10T19:10:50.696Z,94.61
2018-09-10T19:11:51.167Z,94.72
2018-09-10T19:12:51.640Z,94.84
2018-09-10T19:13:52.111Z,94.95
2018-09-10T19:14:52.587Z,95.03
2018-09-10T19:15:53.058Z,95.02
2018-09-10T19:16:53.529Z,94.97
2018-09-10T19:17:54.024Z,94.86
2018-09-10T19:18:54.474Z,94.76
2018-09-10T19:19:54.948Z,94.65
2018-09-10T19:20:55.421Z,94.63
2018-09-10T19:21:55.894Z,94.69
2018-09-10T19:22:56.369Z,94.74
2018-09-10T19:23:56.845Z,94.82
2018-09-10T19:24:57.316Z,94.88
2018-09-10T19:25:57.791Z,94.96
2018-09-10T19:26:58.264Z,94.99
2018-09-10T19:27:58.739Z,95.03
2018-09-10T19:28:59.214Z,94.98
2018-09-10T19:29:59.690Z,95.04
2018-09-10T19:31:00.163Z,95.14
2018-09-10T19:32:00.641Z,95.17
2018-09-10T19:33:01.114Z,95.16
2018-09-10T19:34:01.593Z,95.07
2018-09-10T19:35:02.063Z,94.97
2018-09-10T19:36:02.538Z,94.95
2018-09-10T19:37:03.012Z,94.92
2018-09-10T19:38:03.490Z,94.84
2018-09-10T19:39:03.962Z,94.76